Villa Mercedes, Argentina
Current Conditions -  °F | °C
As of 10:00 PM on Thursday 27 Nov 2014 (Local Time) from SAOC Reporting Station
Clear Clear  
Wind Chill: 77°   Ceiling: Unl
Heat Index: 78°   Visibility: 6mi
Dew Point: 43°   Wind: 25mph
Humidity: 29%   Direction: 360°N
Pressure: 29.83"   Gusts: 38mph
Location:  33.67°S, 65.47°W
Report Text: SAOC 280100Z 36022G33KT CAVOK 25/06 Q1010
Loading
Personal Weather Stations






























Interactive Weather Map New forecast layout! Learn more

10-Day Weather Forecast

Advertisements
Track Severe Weather on mobile